sensor_id;sensor_type;location;lat;lon;timestamp;pressure;altitude;pressure_sealevel;temperature;humidity
78667;BME280;67983;59.830;30.198;2023-04-10T00:00:02;102554.56;;;5.15;41.46
78667;BME280;67983;59.830;30.198;2023-04-10T00:02:30;102556.38;;;5.12;41.39
78667;BME280;67983;59.830;30.198;2023-04-10T00:04:57;102562.59;;;5.06;41.50
78667;BME280;67983;59.830;30.198;2023-04-10T00:07:25;102558.25;;;5.02;41.28
78667;BME280;67983;59.830;30.198;2023-04-10T00:09:56;102555.69;;;4.97;41.39
78667;BME280;67983;59.830;30.198;2023-04-10T00:12:28;102560.97;;;4.96;41.33
78667;BME280;67983;59.830;30.198;2023-04-10T00:14:55;102554.88;;;4.94;41.58
78667;BME280;67983;59.830;30.198;2023-04-10T00:17:24;102551.41;;;4.90;41.81
78667;BME280;67983;59.830;30.198;2023-04-10T00:19:51;102559.31;;;4.89;41.60
78667;BME280;67983;59.830;30.198;2023-04-10T00:22:17;102559.34;;;4.86;41.63
78667;BME280;67983;59.830;30.198;2023-04-10T00:24:46;102565.53;;;4.83;41.62
78667;BME280;67983;59.830;30.198;2023-04-10T00:27:13;102561.19;;;4.80;41.73
78667;BME280;67983;59.830;30.198;2023-04-10T00:29:40;102562.09;;;4.76;41.70
78667;BME280;67983;59.830;30.198;2023-04-10T00:32:07;102563.00;;;4.74;42.31
78667;BME280;67983;59.830;30.198;2023-04-10T00:34:35;102561.31;;;4.68;42.03
78667;BME280;67983;59.830;30.198;2023-04-10T00:37:02;102562.25;;;4.64;41.94
78667;BME280;67983;59.830;30.198;2023-04-10T00:39:33;102557.06;;;4.60;41.84
78667;BME280;67983;59.830;30.198;2023-04-10T00:42:00;102553.56;;;4.56;41.97
78667;BME280;67983;59.830;30.198;2023-04-10T00:44:27;102561.47;;;4.56;41.94
78667;BME280;67983;59.830;30.198;2023-04-10T00:46:56;102559.72;;;4.55;42.03
78667;BME280;67983;59.830;30.198;2023-04-10T00:49:50;102551.91;;;4.49;41.66
78667;BME280;67983;59.830;30.198;2023-04-10T00:52:18;102556.31;;;4.48;41.75
78667;BME280;67983;59.830;30.198;2023-04-10T00:54:45;102563.31;;;4.48;41.91
78667;BME280;67983;59.830;30.198;2023-04-10T00:57:14;102562.44;;;4.49;42.16
78667;BME280;67983;59.830;30.198;2023-04-10T00:59:41;102553.69;;;4.48;41.98
78667;BME280;67983;59.830;30.198;2023-04-10T01:02:08;102552.84;;;4.45;41.78
78667;BME280;67983;59.830;30.198;2023-04-10T01:04:38;102561.59;;;4.44;41.95
78667;BME280;67983;59.830;30.198;2023-04-10T01:07:41;102566.00;;;4.45;41.86
78667;BME280;67983;59.830;30.198;2023-04-10T01:10:24;102565.13;;;4.44;41.83
78667;BME280;67983;59.830;30.198;2023-04-10T01:12:58;102572.97;;;4.46;41.73
78667;BME280;67983;59.830;30.198;2023-04-10T01:15:34;102562.47;;;4.43;41.84
78667;BME280;67983;59.830;30.198;2023-04-10T01:18:09;102567.72;;;4.46;42.04
78667;BME280;67983;59.830;30.198;2023-04-10T01:20:41;102568.56;;;4.48;42.05
78667;BME280;67983;59.830;30.198;2023-04-10T01:26:11;102568.53;;;4.51;41.84
78667;BME280;67983;59.830;30.198;2023-04-10T01:28:56;102572.03;;;4.52;41.88
78667;BME280;67983;59.830;30.198;2023-04-10T01:31:36;102570.28;;;4.50;41.80
78667;BME280;67983;59.830;30.198;2023-04-10T01:34:07;102575.56;;;4.50;41.84
78667;BME280;67983;59.830;30.198;2023-04-10T01:36:39;102568.56;;;4.48;42.01
78667;BME280;67983;59.830;30.198;2023-04-10T01:39:08;102556.34;;;4.45;41.62
78667;BME280;67983;59.830;30.198;2023-04-10T01:42:01;102570.34;;;4.47;41.82
78667;BME280;67983;59.830;30.198;2023-04-10T01:44:40;102574.72;;;4.47;41.85
78667;BME280;67983;59.830;30.198;2023-04-10T01:47:08;102559.81;;;4.47;42.05
78667;BME280;67983;59.830;30.198;2023-04-10T01:49:38;102559.81;;;4.47;41.98
78667;BME280;67983;59.830;30.198;2023-04-10T01:52:10;102563.28;;;4.51;41.93
78667;BME280;67983;59.830;30.198;2023-04-10T01:54:41;102558.88;;;4.52;41.88
78667;BME280;67983;59.830;30.198;2023-04-10T01:57:14;102562.34;;;4.55;41.99
78667;BME280;67983;59.830;30.198;2023-04-10T01:59:57;102557.94;;;4.57;41.87
78667;BME280;67983;59.830;30.198;2023-04-10T02:02:25;102560.56;;;4.60;41.78
78667;BME280;67983;59.830;30.198;2023-04-10T02:04:57;102555.31;;;4.60;41.81
78667;BME280;67983;59.830;30.198;2023-04-10T02:07:28;102550.91;;;4.58;41.63
78667;BME280;67983;59.830;30.198;2023-04-10T02:10:06;102559.69;;;4.57;41.79
78667;BME280;67983;59.830;30.198;2023-04-10T02:12:40;102562.31;;;4.60;41.80
78667;BME280;67983;59.830;30.198;2023-04-10T02:15:41;102561.47;;;4.55;41.95
78667;BME280;67983;59.830;30.198;2023-04-10T02:18:09;102561.53;;;4.50;42.07
78667;BME280;67983;59.830;30.198;2023-04-10T02:20:36;102562.44;;;4.49;42.05
78667;BME280;67983;59.830;30.198;2023-04-10T02:23:04;102567.66;;;4.50;41.99
78667;BME280;67983;59.830;30.198;2023-04-10T02:25:35;102562.44;;;4.47;42.24
78667;BME280;67983;59.830;30.198;2023-04-10T02:28:05;102567.66;;;4.50;42.00
78667;BME280;67983;59.830;30.198;2023-04-10T02:30:33;102570.25;;;4.54;42.01
78667;BME280;67983;59.830;30.198;2023-04-10T02:33:08;102571.97;;;4.56;42.43
78667;BME280;67983;59.830;30.198;2023-04-10T02:35:37;102564.97;;;4.57;42.75
78667;BME280;67983;59.830;30.198;2023-04-10T02:38:03;102570.22;;;4.57;42.76
78667;BME280;67983;59.830;30.198;2023-04-10T02:40:35;102565.88;;;4.54;43.16
78667;BME280;67983;59.830;30.198;2023-04-10T02:43:13;102561.50;;;4.53;43.33
78667;BME280;67983;59.830;30.198;2023-04-10T02:45:43;102565.94;;;4.48;43.40
78667;BME280;67983;59.830;30.198;2023-04-10T02:48:18;102572.97;;;4.46;43.80
78667;BME280;67983;59.830;30.198;2023-04-10T02:50:55;102566.00;;;4.42;43.98
78667;BME280;67983;59.830;30.198;2023-04-10T02:53:23;102570.38;;;4.41;43.93
78667;BME280;67983;59.830;30.198;2023-04-10T02:55:55;102567.78;;;4.40;44.09
78667;BME280;67983;59.830;30.198;2023-04-10T02:58:24;102572.13;;;4.42;44.10
78667;BME280;67983;59.830;30.198;2023-04-10T03:00:54;102565.13;;;4.44;44.19
78667;BME280;67983;59.830;30.198;2023-04-10T03:03:36;102567.72;;;4.46;44.18
78667;BME280;67983;59.830;30.198;2023-04-10T03:06:03;102575.59;;;4.47;44.31
78667;BME280;67983;59.830;30.198;2023-04-10T03:08:36;102569.44;;;4.50;44.19
78667;BME280;67983;59.830;30.198;2023-04-10T03:11:04;102586.94;;;4.51;44.05
78667;BME280;67983;59.830;30.198;2023-04-10T03:13:33;102584.31;;;4.49;43.82
78667;BME280;67983;59.830;30.198;2023-04-10T03:15:59;102586.06;;;4.50;44.12
78667;BME280;67983;59.830;30.198;2023-04-10T03:18:26;102588.66;;;4.54;44.06
78667;BME280;67983;59.830;30.198;2023-04-10T03:20:58;102585.06;;;4.59;44.08
78667;BME280;67983;59.830;30.198;2023-04-10T03:23:26;102588.59;;;4.60;44.23
78667;BME280;67983;59.830;30.198;2023-04-10T03:25:53;102589.47;;;4.59;44.13
78667;BME280;67983;59.830;30.198;2023-04-10T03:28:25;102583.34;;;4.60;43.89
78667;BME280;67983;59.830;30.198;2023-04-10T03:30:54;102578.97;;;4.57;43.97
78667;BME280;67983;59.830;30.198;2023-04-10T03:33:22;102582.47;;;4.58;44.12
78667;BME280;67983;59.830;30.198;2023-04-10T03:35:49;102585.09;;;4.58;43.88
78667;BME280;67983;59.830;30.198;2023-04-10T03:38:19;102579.84;;;4.58;44.27
78667;BME280;67983;59.830;30.198;2023-04-10T03:40:50;102581.59;;;4.57;44.19
78667;BME280;67983;59.830;30.198;2023-04-10T03:43:25;102576.34;;;4.60;44.25
78667;BME280;67983;59.830;30.198;2023-04-10T03:45:52;102572.84;;;4.60;44.30
78667;BME280;67983;59.830;30.198;2023-04-10T03:48:20;102571.00;;;4.66;44.19
78667;BME280;67983;59.830;30.198;2023-04-10T03:50:47;102579.66;;;4.73;44.08
78667;BME280;67983;59.830;30.198;2023-04-10T03:53:14;102581.38;;;4.78;44.11
78667;BME280;67983;59.830;30.198;2023-04-10T03:55:43;102576.94;;;4.82;44.09
78667;BME280;67983;59.830;30.198;2023-04-10T03:58:10;102576.91;;;4.84;44.00
78667;BME280;67983;59.830;30.198;2023-04-10T04:00:39;102582.97;;;4.89;43.79
78667;BME280;67983;59.830;30.198;2023-04-10T04:03:38;102571.56;;;4.91;43.79
78667;BME280;67983;59.830;30.198;2023-04-10T04:06:28;102577.69;;;4.93;43.85
78667;BME280;67983;59.830;30.198;2023-04-10T04:09:31;102577.56;;;5.01;43.78
78667;BME280;67983;59.830;30.198;2023-04-10T04:12:23;102575.66;;;5.12;43.62
78667;BME280;67983;59.830;30.198;2023-04-10T04:15:24;102578.94;;;5.29;43.44
78667;BME280;67983;59.830;30.198;2023-04-10T04:18:14;102580.63;;;5.33;43.53
78667;BME280;67983;59.830;30.198;2023-04-10T04:20:46;102580.59;;;5.35;43.69
78667;BME280;67983;59.830;30.198;2023-04-10T04:23:32;102577.06;;;5.37;43.48
78667;BME280;67983;59.830;30.198;2023-04-10T04:26:22;102568.28;;;5.38;43.69
78667;BME280;67983;59.830;30.198;2023-04-10T04:29:14;102568.19;;;5.43;43.67
78667;BME280;67983;59.830;30.198;2023-04-10T04:32:09;102575.13;;;5.49;43.34
78667;BME280;67983;59.830;30.198;2023-04-10T04:34:54;102578.59;;;5.52;43.19
78667;BME280;67983;59.830;30.198;2023-04-10T04:37:31;102575.94;;;5.54;43.35
78667;BME280;67983;59.830;30.198;2023-04-10T04:40:19;102584.66;;;5.57;43.45
78667;BME280;67983;59.830;30.198;2023-04-10T04:43:07;102574.94;;;5.61;43.39
78667;BME280;67983;59.830;30.198;2023-04-10T04:45:47;102582.75;;;5.65;43.40
78667;BME280;67983;59.830;30.198;2023-04-10T04:48:42;102574.81;;;5.70;43.91
78667;BME280;67983;59.830;30.198;2023-04-10T04:51:32;102586.94;;;5.79;43.57
78667;BME280;67983;59.830;30.198;2023-04-10T04:54:27;102592.91;;;5.91;43.22
78667;BME280;67983;59.830;30.198;2023-04-10T04:57:14;102596.22;;;6.04;43.01
78667;BME280;67983;59.830;30.198;2023-04-10T04:59:56;102592.47;;;6.17;42.46
78667;BME280;67983;59.830;30.198;2023-04-10T05:02:49;102587.94;;;6.25;42.22
78667;BME280;67983;59.830;30.198;2023-04-10T05:05:40;102585.97;;;6.37;41.97
78667;BME280;67983;59.830;30.198;2023-04-10T05:08:40;102585.84;;;6.44;41.82
78667;BME280;67983;59.830;30.198;2023-04-10T05:11:31;102583.94;;;6.51;41.74
78667;BME280;67983;59.830;30.198;2023-04-10T05:14:31;102577.63;;;6.59;41.51
78667;BME280;67983;59.830;30.198;2023-04-10T05:17:21;102580.94;;;6.69;41.43
78667;BME280;67983;59.830;30.198;2023-04-10T05:20:18;102573.63;;;6.83;41.28
78667;BME280;67983;59.830;30.198;2023-04-10T05:23:20;102576.00;;;6.96;41.08
78667;BME280;67983;59.830;30.198;2023-04-10T05:25:56;102574.91;;;7.06;40.65
78667;BME280;67983;59.830;30.198;2023-04-10T05:28:52;102578.16;;;7.17;40.97
78667;BME280;67983;59.830;30.198;2023-04-10T05:31:45;102584.06;;;7.30;40.58
78667;BME280;67983;59.830;30.198;2023-04-10T05:34:18;102591.75;;;7.40;40.90
78667;BME280;67983;59.830;30.198;2023-04-10T05:37:13;102581.75;;;7.53;40.69
78667;BME280;67983;59.830;30.198;2023-04-10T05:40:06;102580.50;;;7.69;40.36
78667;BME280;67983;59.830;30.198;2023-04-10T05:42:57;102583.63;;;7.85;40.02
78667;BME280;67983;59.830;30.198;2023-04-10T05:45:34;102576.22;;;7.99;39.75
78667;BME280;67983;59.830;30.198;2023-04-10T05:48:40;102583.81;;;8.13;39.35
78667;BME280;67983;59.830;30.198;2023-04-10T05:51:26;102580.84;;;8.24;39.66
78667;BME280;67983;59.830;30.198;2023-04-10T05:54:18;102590.28;;;8.35;39.36
78667;BME280;67983;59.830;30.198;2023-04-10T05:57:06;102587.31;;;8.48;39.02
78667;BME280;67983;59.830;30.198;2023-04-10T05:59:34;102585.25;;;8.59;38.90
78667;BME280;67983;59.830;30.198;2023-04-10T06:02:21;102588.38;;;8.73;38.54
78667;BME280;67983;59.830;30.198;2023-04-10T06:04:50;102585.44;;;8.82;38.43
78667;BME280;67983;59.830;30.198;2023-04-10T06:07:17;102579.91;;;8.91;38.35
78667;BME280;67983;59.830;30.198;2023-04-10T06:09:47;102592.78;;;9.02;37.91
78667;BME280;67983;59.830;30.198;2023-04-10T06:12:14;102585.47;;;9.12;38.13
78667;BME280;67983;59.830;30.198;2023-04-10T06:14:42;102589.56;;;9.22;38.06
78667;BME280;67983;59.830;30.198;2023-04-10T06:17:11;102592.84;;;9.30;37.51
78667;BME280;67983;59.830;30.198;2023-04-10T06:19:38;102599.50;;;9.43;37.31
78667;BME280;67983;59.830;30.198;2023-04-10T06:22:06;102595.66;;;9.53;37.34
78667;BME280;67983;59.830;30.198;2023-04-10T06:24:35;102596.16;;;9.65;37.08
78667;BME280;67983;59.830;30.198;2023-04-10T06:27:03;102595.81;;;9.75;36.83
78667;BME280;67983;59.830;30.198;2023-04-10T06:29:30;102599.09;;;9.83;36.60
78667;BME280;67983;59.830;30.198;2023-04-10T06:31:57;102597.97;;;9.91;36.65
78667;BME280;67983;59.830;30.198;2023-04-10T06:34:32;102592.50;;;9.95;36.66
78667;BME280;67983;59.830;30.198;2023-04-10T06:37:03;102602.06;;;10.01;36.25
78667;BME280;67983;59.830;30.198;2023-04-10T06:39:31;102592.81;;;10.12;36.03
78667;BME280;67983;59.830;30.198;2023-04-10T06:42:03;102592.53;;;10.20;36.25
78667;BME280;67983;59.830;30.198;2023-04-10T06:44:53;102590.59;;;10.27;36.24
78667;BME280;67983;59.830;30.198;2023-04-10T06:47:20;102597.34;;;10.35;35.71
78667;BME280;67983;59.830;30.198;2023-04-10T06:49:47;102592.66;;;10.43;36.17
78667;BME280;67983;59.830;30.198;2023-04-10T06:52:16;102587.88;;;10.53;35.78
78667;BME280;67983;59.830;30.198;2023-04-10T06:54:43;102596.31;;;10.64;35.79
78667;BME280;67983;59.830;30.198;2023-04-10T06:57:14;102600.44;;;10.73;35.51
78667;BME280;67983;59.830;30.198;2023-04-10T06:59:41;102590.44;;;10.80;35.59
78667;BME280;67983;59.830;30.198;2023-04-10T07:02:09;102598.13;;;10.87;35.76
78667;BME280;67983;59.830;30.198;2023-04-10T07:04:36;102589.00;;;10.94;35.43
78667;BME280;67983;59.830;30.198;2023-04-10T07:07:03;102592.06;;;11.07;36.07
78667;BME280;67983;59.830;30.198;2023-04-10T07:09:34;102591.63;;;11.19;35.36
78667;BME280;67983;59.830;30.198;2023-04-10T07:12:04;102591.97;;;11.32;35.30
78667;BME280;67983;59.830;30.198;2023-04-10T07:14:33;102598.72;;;11.41;35.08
78667;BME280;67983;59.830;30.198;2023-04-10T07:17:02;102588.72;;;11.47;35.14
78667;BME280;67983;59.830;30.198;2023-04-10T07:19:30;102591.13;;;11.53;34.46
78667;BME280;67983;59.830;30.198;2023-04-10T07:21:57;102594.34;;;11.61;34.58
78667;BME280;67983;59.830;30.198;2023-04-10T07:24:23;102594.25;;;11.64;34.34
78667;BME280;67983;59.830;30.198;2023-04-10T07:26:50;102590.47;;;11.70;34.65
78667;BME280;67983;59.830;30.198;2023-04-10T07:29:17;102596.44;;;11.75;34.57
78667;BME280;67983;59.830;30.198;2023-04-10T07:31:48;102596.13;;;11.84;34.35
78667;BME280;67983;59.830;30.198;2023-04-10T07:34:16;102594.91;;;11.91;34.57
78667;BME280;67983;59.830;30.198;2023-04-10T07:36:43;102598.94;;;12.02;34.18
78667;BME280;67983;59.830;30.198;2023-04-10T07:39:10;102595.03;;;12.10;34.19
78667;BME280;67983;59.830;30.198;2023-04-10T07:41:38;102590.22;;;12.18;34.16
78667;BME280;67983;59.830;30.198;2023-04-10T07:44:07;102591.56;;;12.29;33.86
78667;BME280;67983;59.830;30.198;2023-04-10T07:46:35;102591.28;;;12.35;33.68
78667;BME280;67983;59.830;30.198;2023-04-10T07:49:06;102592.03;;;12.38;33.89
78667;BME280;67983;59.830;30.198;2023-04-10T07:51:33;102601.56;;;12.44;33.62
78667;BME280;67983;59.830;30.198;2023-04-10T07:54:01;102592.34;;;12.51;33.31
78667;BME280;67983;59.830;30.198;2023-04-10T07:56:29;102589.47;;;12.55;33.72
78667;BME280;67983;59.830;30.198;2023-04-10T07:58:59;102583.03;;;12.61;33.49
78667;BME280;67983;59.830;30.198;2023-04-10T08:01:29;102585.56;;;12.64;33.46
78667;BME280;67983;59.830;30.198;2023-04-10T08:03:56;102580.69;;;12.74;33.59
78667;BME280;67983;59.830;30.198;2023-04-10T08:06:27;102585.50;;;12.84;33.23
78667;BME280;67983;59.830;30.198;2023-04-10T08:08:54;102581.56;;;12.93;33.24
78667;BME280;67983;59.830;30.198;2023-04-10T08:11:25;102581.00;;;13.05;33.12
78667;BME280;67983;59.830;30.198;2023-04-10T08:13:52;102590.28;;;13.15;33.25
78667;BME280;67983;59.830;30.198;2023-04-10T08:16:22;102590.91;;;13.22;33.20
78667;BME280;67983;59.830;30.198;2023-04-10T08:18:51;102590.44;;;13.31;32.89
78667;BME280;67983;59.830;30.198;2023-04-10T08:21:18;102581.16;;;13.40;32.87
78667;BME280;67983;59.830;30.198;2023-04-10T08:23:49;102577.19;;;13.49;33.11
78667;BME280;67983;59.830;30.198;2023-04-10T08:26:19;102576.72;;;13.58;33.02
78667;BME280;67983;59.830;30.198;2023-04-10T08:28:47;102581.47;;;13.70;32.97
78667;BME280;67983;59.830;30.198;2023-04-10T08:31:15;102576.75;;;13.75;32.54
78667;BME280;67983;59.830;30.198;2023-04-10T08:33:42;102579.44;;;13.75;32.51
78667;BME280;67983;59.830;30.198;2023-04-10T08:36:11;102576.75;;;13.75;32.54
78667;BME280;67983;59.830;30.198;2023-04-10T08:38:40;102574.59;;;13.83;32.49
78667;BME280;67983;59.830;30.198;2023-04-10T08:41:10;102573.97;;;13.95;32.12
78667;BME280;67983;59.830;30.198;2023-04-10T08:43:38;102571.94;;;14.00;32.06
78667;BME280;67983;59.830;30.198;2023-04-10T08:46:05;102570.66;;;14.07;31.94
78667;BME280;67983;59.830;30.198;2023-04-10T08:48:58;102564.09;;;14.15;31.73
78667;BME280;67983;59.830;30.198;2023-04-10T08:51:38;102562.59;;;14.26;31.81
78667;BME280;67983;59.830;30.198;2023-04-10T08:54:18;102559.19;;;14.40;31.68
78667;BME280;67983;59.830;30.198;2023-04-10T08:56:49;102563.97;;;14.51;31.53
78667;BME280;67983;59.830;30.198;2023-04-10T08:59:17;102564.19;;;14.63;31.34
78667;BME280;67983;59.830;30.198;2023-04-10T09:01:44;102553.97;;;14.72;31.27
78667;BME280;67983;59.830;30.198;2023-04-10T09:04:17;102551.81;;;14.78;31.11
78667;BME280;67983;59.830;30.198;2023-04-10T09:06:44;102555.72;;;14.88;31.08
78667;BME280;67983;59.830;30.198;2023-04-10T09:09:11;102548.22;;;14.95;30.75
78667;BME280;67983;59.830;30.198;2023-04-10T09:11:59;102543.56;;;14.99;31.22
78667;BME280;67983;59.830;30.198;2023-04-10T09:14:34;102546.41;;;15.11;30.91
78667;BME280;67983;59.830;30.198;2023-04-10T09:17:12;102542.09;;;15.24;30.73
78667;BME280;67983;59.830;30.198;2023-04-10T09:19:41;102543.50;;;15.32;30.60
78667;BME280;67983;59.830;30.198;2023-04-10T09:22:08;102543.16;;;15.38;30.40
78667;BME280;67983;59.830;30.198;2023-04-10T09:24:39;102543.81;;;15.41;30.33
78667;BME280;67983;59.830;30.198;2023-04-10T09:27:08;102546.94;;;15.49;30.40
78667;BME280;67983;59.830;30.198;2023-04-10T09:29:41;102539.31;;;15.58;30.26
78667;BME280;67983;59.830;30.198;2023-04-10T09:32:12;102528.69;;;15.72;29.98
78667;BME280;67983;59.830;30.198;2023-04-10T09:34:52;102534.00;;;15.88;30.18
78667;BME280;67983;59.830;30.198;2023-04-10T09:37:20;102532.03;;;16.05;30.03
78667;BME280;67983;59.830;30.198;2023-04-10T09:39:47;102533.69;;;16.22;29.72
78667;BME280;67983;59.830;30.198;2023-04-10T09:42:28;102530.06;;;16.37;29.58
78667;BME280;67983;59.830;30.198;2023-04-10T09:44:59;102531.06;;;16.65;29.42
78667;BME280;67983;59.830;30.198;2023-04-10T09:47:27;102526.56;;;16.94;28.80
78667;BME280;67983;59.830;30.198;2023-04-10T09:49:58;102528.97;;;17.25;28.43
78667;BME280;67983;59.830;30.198;2023-04-10T09:52:27;102538.44;;;17.58;27.87
78667;BME280;67983;59.830;30.198;2023-04-10T09:54:57;102525.56;;;17.90;27.33
78667;BME280;67983;59.830;30.198;2023-04-10T09:57:28;102528.31;;;18.15;26.76
78667;BME280;67983;59.830;30.198;2023-04-10T09:59:59;102516.50;;;18.43;26.23
78667;BME280;67983;59.830;30.198;2023-04-10T10:02:28;102512.06;;;18.80;25.92
78667;BME280;67983;59.830;30.198;2023-04-10T10:04:57;102513.19;;;19.26;25.82
78667;BME280;67983;59.830;30.198;2023-04-10T10:07:26;102506.09;;;19.73;24.69
78667;BME280;67983;59.830;30.198;2023-04-10T10:09:54;102509.06;;;20.27;24.64
78667;BME280;67983;59.830;30.198;2023-04-10T10:12:32;102500.66;;;20.76;23.78
78667;BME280;67983;59.830;30.198;2023-04-10T10:15:00;102505.00;;;21.11;23.38
78667;BME280;67983;59.830;30.198;2023-04-10T10:17:32;102506.56;;;21.68;23.07
78667;BME280;67983;59.830;30.198;2023-04-10T10:20:03;102509.31;;;22.10;21.96
78667;BME280;67983;59.830;30.198;2023-04-10T10:22:57;102501.75;;;22.64;21.36
78667;BME280;67983;59.830;30.198;2023-04-10T10:25:25;102496.53;;;23.32;21.09
78667;BME280;67983;59.830;30.198;2023-04-10T10:27:54;102501.81;;;24.11;20.31
78667;BME280;67983;59.830;30.198;2023-04-10T10:30:22;102505.84;;;25.09;19.89
78667;BME280;67983;59.830;30.198;2023-04-10T10:32:53;102499.69;;;26.13;19.17
78667;BME280;67983;59.830;30.198;2023-04-10T10:35:20;102497.47;;;27.19;18.88
78667;BME280;67983;59.830;30.198;2023-04-10T10:37:50;102494.94;;;28.23;17.31
78667;BME280;67983;59.830;30.198;2023-04-10T10:40:21;102503.25;;;29.25;16.14
78667;BME280;67983;59.830;30.198;2023-04-10T10:42:59;102489.75;;;29.92;15.56
78667;BME280;67983;59.830;30.198;2023-04-10T10:45:33;102477.66;;;30.68;14.50
78667;BME280;67983;59.830;30.198;2023-04-10T10:48:06;102484.81;;;31.63;13.67
78667;BME280;67983;59.830;30.198;2023-04-10T10:50:53;102483.59;;;32.56;13.00
78667;BME280;67983;59.830;30.198;2023-04-10T10:53:42;102483.50;;;33.58;12.74
78667;BME280;67983;59.830;30.198;2023-04-10T10:56:33;102480.88;;;34.49;12.10
78667;BME280;67983;59.830;30.198;2023-04-10T10:59:02;102474.06;;;35.03;11.42
78667;BME280;67983;59.830;30.198;2023-04-10T11:01:29;102474.69;;;35.43;10.87
78667;BME280;67983;59.830;30.198;2023-04-10T11:03:56;102473.44;;;35.64;11.24
78667;BME280;67983;59.830;30.198;2023-04-10T11:06:50;102469.94;;;35.75;11.41
78667;BME280;67983;59.830;30.198;2023-04-10T11:09:44;102474.47;;;35.95;10.96
78667;BME280;67983;59.830;30.198;2023-04-10T11:15:44;102464.81;;;36.22;11.05
78667;BME280;67983;59.830;30.198;2023-04-10T11:18:11;102466.13;;;36.93;10.58
78667;BME280;67983;59.830;30.198;2023-04-10T11:21:07;102459.31;;;37.60;9.68
78667;BME280;67983;59.830;30.198;2023-04-10T11:23:35;102462.72;;;37.74;9.98
78667;BME280;67983;59.830;30.198;2023-04-10T11:26:03;102449.31;;;38.30;9.55
78667;BME280;67983;59.830;30.198;2023-04-10T11:28:37;102440.25;;;38.46;8.36
78667;BME280;67983;59.830;30.198;2023-04-10T11:31:31;102453.13;;;38.40;8.22
78667;BME280;67983;59.830;30.198;2023-04-10T11:34:03;102445.22;;;38.72;7.87
78667;BME280;67983;59.830;30.198;2023-04-10T11:36:30;102441.56;;;39.12;8.41
78667;BME280;67983;59.830;30.198;2023-04-10T11:38:58;102439.31;;;39.59;8.14
78667;BME280;67983;59.830;30.198;2023-04-10T11:41:30;102446.28;;;39.79;7.59
78667;BME280;67983;59.830;30.198;2023-04-10T11:43:59;102440.28;;;38.63;7.53
78667;BME280;67983;59.830;30.198;2023-04-10T11:46:27;102439.28;;;38.40;7.23
78667;BME280;67983;59.830;30.198;2023-04-10T11:48:57;102430.94;;;38.40;7.20
78667;BME280;67983;59.830;30.198;2023-04-10T11:51:24;102431.09;;;38.34;7.18
78667;BME280;67983;59.830;30.198;2023-04-10T11:54:04;102434.78;;;38.91;7.47
78667;BME280;67983;59.830;30.198;2023-04-10T11:56:32;102424.03;;;39.79;6.79
78667;BME280;67983;59.830;30.198;2023-04-10T11:59:00;102421.06;;;40.24;7.08
78667;BME280;67983;59.830;30.198;2023-04-10T12:01:32;102431.28;;;40.84;6.57
78667;BME280;67983;59.830;30.198;2023-04-10T12:04:01;102429.31;;;41.11;6.08
78667;BME280;67983;59.830;30.198;2023-04-10T12:06:28;102417.97;;;40.42;6.38
78667;BME280;67983;59.830;30.198;2023-04-10T12:09:11;102411.66;;;38.74;7.26
78667;BME280;67983;59.830;30.198;2023-04-10T12:11:48;102417.50;;;38.09;7.80
78667;BME280;67983;59.830;30.198;2023-04-10T12:14:16;102414.00;;;38.65;7.79
78667;BME280;67983;59.830;30.198;2023-04-10T12:16:45;102404.44;;;39.35;7.20
78667;BME280;67983;59.830;30.198;2023-04-10T12:19:14;102408.81;;;38.57;7.23
78667;BME280;67983;59.830;30.198;2023-04-10T12:21:44;102405.44;;;38.15;7.44
78667;BME280;67983;59.830;30.198;2023-04-10T12:24:12;102396.91;;;38.05;7.82
78667;BME280;67983;59.830;30.198;2023-04-10T12:26:46;102390.78;;;37.79;7.76
78667;BME280;67983;59.830;30.198;2023-04-10T12:29:15;102390.53;;;37.57;7.72
78667;BME280;67983;59.830;30.198;2023-04-10T12:31:42;102394.38;;;37.45;8.09
78667;BME280;67983;59.830;30.198;2023-04-10T12:34:08;102390.53;;;37.57;7.95
78667;BME280;67983;59.830;30.198;2023-04-10T12:36:41;102388.13;;;37.61;8.03
78667;BME280;67983;59.830;30.198;2023-04-10T12:39:22;102380.41;;;37.28;8.12
78667;BME280;67983;59.830;30.198;2023-04-10T12:42:18;102378.31;;;35.85;8.51
78667;BME280;67983;59.830;30.198;2023-04-10T12:44:49;102376.03;;;34.17;9.52
78667;BME280;67983;59.830;30.198;2023-04-10T12:47:19;102378.84;;;33.05;10.22
78667;BME280;67983;59.830;30.198;2023-04-10T12:50:05;102371.00;;;32.28;10.52
78667;BME280;67983;59.830;30.198;2023-04-10T12:52:41;102367.38;;;32.21;10.53
78667;BME280;67983;59.830;30.198;2023-04-10T12:55:09;102371.00;;;32.28;10.29
78667;BME280;67983;59.830;30.198;2023-04-10T12:57:37;102368.59;;;31.77;10.76
78667;BME280;67983;59.830;30.198;2023-04-10T13:00:09;102367.03;;;31.68;11.03
78667;BME280;67983;59.830;30.198;2023-04-10T13:02:39;102364.84;;;30.86;11.27
78667;BME280;67983;59.830;30.198;2023-04-10T13:05:10;102365.16;;;29.81;11.52
78667;BME280;67983;59.830;30.198;2023-04-10T13:07:40;102366.63;;;29.54;11.94
78667;BME280;67983;59.830;30.198;2023-04-10T13:10:08;102370.19;;;29.17;12.38
78667;BME280;67983;59.830;30.198;2023-04-10T13:12:38;102371.03;;;28.95;12.67
78667;BME280;67983;59.830;30.198;2023-04-10T13:15:07;102358.69;;;28.76;12.91
78667;BME280;67983;59.830;30.198;2023-04-10T13:17:35;102360.31;;;28.31;12.88
78667;BME280;67983;59.830;30.198;2023-04-10T13:20:03;102364.78;;;27.28;13.94
78667;BME280;67983;59.830;30.198;2023-04-10T13:22:39;102358.16;;;26.05;14.84
78667;BME280;67983;59.830;30.198;2023-04-10T13:25:07;102365.28;;;25.11;15.64